• Join FlightAware (Why Join?)
  • Login
  • US Flag 
05:36AM EDT


 

Airport Tracker/Info


-or-


 

Live Flight TrackerFlight Track Log ✈ EEA2756 ✈ 23-Jan-2014 ✈ ZSLG / LYG - ZUUU / CTU

Flight Track Log - Related Links

Times and Time Zones

All times are in EST time to prevent confusion due to time zone crossing. See the EEA2756 flight status page for this flight to view local times or setup timezone preferences in your user account.

Time Position Orientation Groundspeed Altitude Reporting Facility
EST Latitude Longitude Course Direction KTS MPH feet Rate Location/Type
04:43AM 33.5061 114.0222 257° West  Level Estimated
04:44AM 33.4777 113.9055 254° West  Level Estimated
04:45AM 33.4493 113.7888 254° West  Level Estimated
04:46AM 33.4207 113.6721 254° West  Level Estimated
04:47AM 33.3920 113.5556 254° West  Level Estimated
04:48AM 33.3633 113.4391 254° West  Level Estimated
04:49AM 33.3344 113.3227 253° West  Level Estimated
04:50AM 33.3054 113.2064 253° West  Level Estimated
04:51AM 33.2763 113.0902 253° West  Level Estimated
04:52AM 33.2471 112.9740 253° West  Level Estimated
04:53AM 33.2177 112.8580 253° West  Level Estimated
04:54AM 33.1883 112.7420 253° West  Level Estimated
04:55AM 33.1588 112.6260 253° West  Level Estimated
04:56AM 33.1291 112.5102 253° West  Level Estimated
04:57AM 33.0994 112.3944 253° West  Level Estimated
04:58AM 33.0695 112.2787 253° West  Level Estimated
04:59AM 33.0395 112.1631 253° West  Level Estimated
05:00AM 33.0095 112.0476 253° West  Level Estimated
05:01AM 32.9793 111.9321 253° West  Level Estimated
05:02AM 32.9490 111.8168 253° West  Level Estimated
05:03AM 32.9186 111.7015 253° West  Level Estimated
05:04AM 32.8881 111.5863 253° West  Level Estimated
05:05AM 32.8575 111.4711 252° West  Level Estimated
05:06AM 32.8268 111.3561 252° West  Level Estimated
05:07AM 32.7960 111.2411 252° West  Level Estimated
05:08AM 32.7651 111.1262 252° West  Level Estimated
05:09AM 32.7341 111.0114 252° West  Level Estimated
05:10AM 32.7029 110.8966 252° West  Level Estimated
05:11AM 32.6717 110.7820 252° West  Level Estimated
05:12AM 32.6404 110.6674 252° West  Level Estimated
05:13AM 32.6089 110.5529 252° West  Level Estimated
05:14AM 32.5774 110.4385 252° West  Level Estimated
05:15AM 32.5457 110.3242 252° West  Level Estimated
05:16AM 32.5140 110.2099 252° West  Level Estimated
05:17AM 32.4821 110.0957 252° West  Level Estimated
05:18AM 32.4502 109.9816 252° West  Level Estimated
05:19AM 32.4181 109.8676 252° West  Level Estimated
05:20AM 32.3859 109.7537 252° West  Level Estimated
05:21AM 32.3537 109.6398 251° West  Level Estimated
05:22AM 32.3213 109.5261 251° West  Level Estimated
05:23AM 32.2888 109.4124 251° West  Level Estimated
05:24AM 32.2563 109.2988 251° West  Level Estimated
05:25AM 32.2236 109.1853 251° West  Level Estimated
05:26AM 32.1908 109.0718 251° West  Level Estimated
05:27AM 32.1580 108.9585 251° West  Level Estimated
05:28AM 32.1250 108.8452 251° West  Level Estimated
05:29AM 32.0919 108.7320 251° West  Level Estimated
05:30AM 32.0587 108.6189 251° West  Level Estimated
05:31AM 32.0255 108.5059 251° West  Level Estimated
05:32AM 31.9921 108.3929 251° West  Level Estimated
05:33AM 31.9586 108.2800 251° West  Level Estimated
05:34AM 31.9250 108.1673 251° West  Level Estimated
05:35AM 31.8913 108.0546 251° West  Level Estimated
05:36AM 31.8575 107.9419 251° West  Level Estimated
05:37AM 31.8237 107.8294 251° West  Level Estimated
05:38AM 31.7897 107.7169 250° West  Level Estimated
05:39AM 31.7556 107.6046 250° West  Level Estimated
05:40AM 31.7215 107.4923 250° West  Level Estimated
05:41AM 31.6872 107.3801 250° West  Level Estimated
05:42AM 31.6528 107.2680 250° West  Level Estimated
05:43AM 31.6184 107.1559 250° West  Level Estimated
05:44AM 31.5838 107.0440 250° West  Level Estimated
05:45AM 31.5491 106.9321 250° West  Level Estimated
05:46AM 31.5144 106.8203 250° West  Level Estimated
05:47AM 31.4795 106.7086 250° West  Level Estimated
05:48AM 31.4446 106.5970 250° West  Level Estimated
05:49AM 31.4095 106.4854 250° West  Level Estimated
05:50AM 31.3744 106.3740 250° West  Level Estimated
05:51AM 31.3391 106.2626 250° West  Level Estimated
05:52AM 31.3038 106.1513 250° West  Level Estimated
05:53AM 31.2684 106.0401 250° West  Level Estimated
05:54AM 31.2328 105.9290 250° West  Level Estimated
05:55AM 31.1972 105.8179 249° West  Level Estimated
05:56AM 31.1615 105.7070 249° West  Level Estimated
05:57AM 31.1257 105.5961 249° West  Level Estimated
05:58AM 31.0898 105.4853 249° West  Level Estimated
05:59AM 31.0538 105.3746 249° West  Level Estimated
06:00AM 31.0177 105.2640 249° West  Level Estimated
06:01AM 30.9815 105.1535 249° West  Level Estimated
06:02AM 30.9452 105.0430 249° West  Level Estimated
06:03AM 30.9088 104.9326 249° West  Level Estimated
06:04AM 30.8723 104.8223 249° West  Level Estimated
06:05AM 30.8358 104.7122 249° West  Level Estimated
06:06AM 30.7991 104.6020 249° West  Level Estimated
06:07AM 30.7623 104.4920 249° West  Level Estimated
06:08AM 30.7255 104.3820 249° West  Level Estimated
06:09AM 30.6885 104.2722 249° West  Level Estimated
06:10AM 30.6515 104.1624 249° West  Level Estimated
06:11AM 30.6144 104.0527 249° West  Level Estimated
06:12AM 30.5785 103.9471 249° West  Level Estimated
06:13AM 30.5785 103.9471 240° Southwest  Level Estimated
06:14AM 30.5785 103.9471 240° Southwest  Level Estimated
06:15AM 30.5785 103.9471 240° Southwest  Level Estimated
06:16AM 30.5785 103.9471 240° Southwest  Level Estimated
06:17AM 30.5785 103.9471 240° Southwest  Level Estimated
06:18AM 30.5785 103.9471 240° Southwest  Level Estimated
06:19AM 30.5785 103.9471 240° Southwest  Level Estimated
06:20AM 30.5785 103.9471 240° Southwest  Level Estimated
06:21AM 30.5785 103.9471 240° Southwest  Level Estimated
06:22AM 30.5785 103.9471 240° Southwest  Level Estimated
06:23AM 30.5785 103.9471 240° Southwest  Level Estimated
06:24AM 30.5785 103.9471 240° Southwest  Level Estimated
06:25AM 30.5785 103.9471 240° Southwest  Level Estimated
06:26AM 30.5785 103.9471 240° Southwest  Level Estimated
06:27AM 30.5785 103.9471 240° Southwest  Level Estimated
06:28AM 30.5785 103.9471 240° Southwest  Level Estimated